YHIDYBWP

Guest
Details From YHID - Horn Island
To YBWP - Weipa
Flight Number -
Tags generated
Created
Modified
Stats Distance 128 nm / 236 km
Max Altitude 100 ft / 30 m
Waypoints 4
Social Downloads 0
Likes 0
Share VATSIM

Download

Looking for another format? Having issues loading an existing format? Contact us
Advertisement - Login to hide

Notes

Basic altitude profile: - Ascent Rate: 2500ft/min - Ascent Speed: 250kts - Cruise Altitude: 17000ft - Cruise Speed: 420kts - Descent Rate: 1500ft/min - Descent Speed: 250kts Options: - Use NATs: yes - Use PACOTS: yes - Use low airways: yes - Use high airways: yes

Route

YHID HID WP YBWP

ID Type Via Altitude Latitude Longitude Leg Dist Tot Dist Heading (true) Name
O YHID APT - 0 ft / 0 m -10.58566˚ 142.28997˚ - 0 nm - Horn Island
HID NDB - 100 ft / 30 m -10.59194˚ 142.29250˚ 0 nm 0 nm 158° / 158° HORN ISLAND NDB
WP VOR - 0 ft / 0 m -12.67361˚ 141.92250˚ 126 nm 127 nm 190° / 190° WEIPA VOR-DME
O YBWP APT - 0 ft / 0 m -12.67740˚ 141.92239˚ 0 nm 127 nm 182° / 182° Weipa

Altitude Profile

Advertisement - Login to hide

YHID

Details ICAO YHID (HID)
Name Horn Island
Region Australia
Timezone Australia/Brisbane (UTC+10.0)
Stats Elevation 43 ft / 13 m (AMSL)
Location -10.585660° 142.289969°
Runways 2
Magnetic Variation 4.906° E

METAR

YHID 171200Z AUTO 11010KT 9999 // SCT026 29/23 Q1009

Decode

TAF

TAF YHID 171104Z 1712/1812 11008KT 9999 -SHRA SCT025 FM180000 12012KT 9999 SCT030 FM180900 10008KT 9999 SCT025

Decode

Departure Runways

ID Width Length Bearing (true) Bearing (mag) Surface Threshold Offset Overrun Length
08 102 ft / 31 m 4,565 ft / 1,392 m 84.80° 79.89° Asphalt 0 ft / 0 m 66 ft / 20 m
14 75 ft / 23 m 4,082 ft / 1,244 m 139.90° 134.99° Asphalt 0 ft / 0 m 190 ft / 58 m
26 102 ft / 31 m 4,565 ft / 1,392 m 264.80° 259.89° Asphalt 0 ft / 0 m 200 ft / 61 m
32 75 ft / 23 m 4,082 ft / 1,244 m 319.90° 314.99° Asphalt 0 ft / 0 m 0 ft / 0 m

YBWP

Details ICAO YBWP (WEI)
Name Weipa
Region Australia
Timezone Australia/Brisbane (UTC+10.0)
Stats Elevation 63 ft / 19 m (AMSL)
Location -12.677403° 141.922386°
Runways 1
Magnetic Variation 5.123° E

METAR

YBWP 171200Z AUTO 05005KT 9999 // SCT045 25/23 Q1009

Decode

TAF

Not found

Destination Runways

ID Width Length Bearing (true) Bearing (mag) Surface Threshold Offset Overrun Length
12 98 ft / 30 m 5,404 ft / 1,647 m 124.40° 119.28° Asphalt 0 ft / 0 m 0 ft / 0 m
30 98 ft / 30 m 5,404 ft / 1,647 m 304.40° 299.28° Asphalt 0 ft / 0 m 0 ft / 0 m

Popular Alternatives